sensor_id;sensor_type;location;lat;lon;timestamp;P1;durP1;ratioP1;P2;durP2;ratioP2
10082;SDS011;5080;48.528;8.078;2024-03-08T00:00:18;14.47;;;13.87;;
10082;SDS011;5080;48.528;8.078;2024-03-08T00:02:45;14.10;;;13.50;;
10082;SDS011;5080;48.528;8.078;2024-03-08T00:05:13;14.00;;;13.40;;
10082;SDS011;5080;48.528;8.078;2024-03-08T00:07:44;14.43;;;13.83;;
10082;SDS011;5080;48.528;8.078;2024-03-08T00:10:12;14.40;;;13.80;;
10082;SDS011;5080;48.528;8.078;2024-03-08T00:12:41;14.13;;;13.53;;
10082;SDS011;5080;48.528;8.078;2024-03-08T00:15:09;15.00;;;14.40;;
10082;SDS011;5080;48.528;8.078;2024-03-08T00:17:39;13.47;;;12.97;;
10082;SDS011;5080;48.528;8.078;2024-03-08T00:20:07;13.65;;;13.07;;
10082;SDS011;5080;48.528;8.078;2024-03-08T00:22:34;14.20;;;13.60;;
10082;SDS011;5080;48.528;8.078;2024-03-08T00:25:02;14.43;;;13.83;;
10082;SDS011;5080;48.528;8.078;2024-03-08T00:27:29;14.33;;;13.73;;
10082;SDS011;5080;48.528;8.078;2024-03-08T00:29:57;13.83;;;13.27;;
10082;SDS011;5080;48.528;8.078;2024-03-08T00:32:25;14.43;;;13.83;;
10082;SDS011;5080;48.528;8.078;2024-03-08T00:34:56;14.40;;;13.80;;
10082;SDS011;5080;48.528;8.078;2024-03-08T00:37:23;14.93;;;14.23;;
10082;SDS011;5080;48.528;8.078;2024-03-08T00:39:51;14.20;;;13.60;;
10082;SDS011;5080;48.528;8.078;2024-03-08T00:42:18;14.03;;;13.43;;
10082;SDS011;5080;48.528;8.078;2024-03-08T00:44:46;15.10;;;14.50;;
10082;SDS011;5080;48.528;8.078;2024-03-08T00:47:17;14.43;;;13.83;;
10082;SDS011;5080;48.528;8.078;2024-03-08T00:49:54;14.30;;;13.70;;
10082;SDS011;5080;48.528;8.078;2024-03-08T00:52:21;14.00;;;13.40;;
10082;SDS011;5080;48.528;8.078;2024-03-08T00:54:51;14.97;;;14.37;;
10082;SDS011;5080;48.528;8.078;2024-03-08T00:57:18;14.47;;;13.87;;
10082;SDS011;5080;48.528;8.078;2024-03-08T00:59:46;14.43;;;13.83;;
10082;SDS011;5080;48.528;8.078;2024-03-08T01:02:13;14.57;;;13.97;;
10082;SDS011;5080;48.528;8.078;2024-03-08T01:04:41;14.80;;;14.20;;
10082;SDS011;5080;48.528;8.078;2024-03-08T01:07:07;14.10;;;13.50;;
10082;SDS011;5080;48.528;8.078;2024-03-08T01:09:36;14.13;;;13.53;;
10082;SDS011;5080;48.528;8.078;2024-03-08T01:12:03;14.50;;;13.80;;
10082;SDS011;5080;48.528;8.078;2024-03-08T01:14:32;14.17;;;13.57;;
10082;SDS011;5080;48.528;8.078;2024-03-08T01:16:59;14.33;;;13.73;;
10082;SDS011;5080;48.528;8.078;2024-03-08T01:19:25;14.20;;;13.60;;
10082;SDS011;5080;48.528;8.078;2024-03-08T01:21:54;14.23;;;13.63;;
10082;SDS011;5080;48.528;8.078;2024-03-08T01:24:23;14.53;;;13.93;;
10082;SDS011;5080;48.528;8.078;2024-03-08T01:26:50;14.27;;;13.68;;
10082;SDS011;5080;48.528;8.078;2024-03-08T01:29:17;14.27;;;13.68;;
10082;SDS011;5080;48.528;8.078;2024-03-08T01:31:45;14.23;;;13.63;;
10082;SDS011;5080;48.528;8.078;2024-03-08T01:34:12;14.47;;;13.87;;
10082;SDS011;5080;48.528;8.078;2024-03-08T01:36:38;14.27;;;13.67;;
10082;SDS011;5080;48.528;8.078;2024-03-08T01:39:06;14.37;;;13.77;;
10082;SDS011;5080;48.528;8.078;2024-03-08T01:41:34;14.57;;;13.97;;
10082;SDS011;5080;48.528;8.078;2024-03-08T01:44:01;14.27;;;13.67;;
10082;SDS011;5080;48.528;8.078;2024-03-08T01:46:28;13.90;;;13.30;;
10082;SDS011;5080;48.528;8.078;2024-03-08T01:48:56;14.23;;;13.63;;
10082;SDS011;5080;48.528;8.078;2024-03-08T01:51:23;13.73;;;13.17;;
10082;SDS011;5080;48.528;8.078;2024-03-08T01:53:50;14.00;;;13.40;;
10082;SDS011;5080;48.528;8.078;2024-03-08T01:56:19;13.90;;;13.30;;
10082;SDS011;5080;48.528;8.078;2024-03-08T01:58:46;14.10;;;13.50;;
10082;SDS011;5080;48.528;8.078;2024-03-08T02:01:13;14.17;;;13.57;;
10082;SDS011;5080;48.528;8.078;2024-03-08T02:03:41;14.70;;;14.10;;
10082;SDS011;5080;48.528;8.078;2024-03-08T02:06:09;14.35;;;13.75;;
10082;SDS011;5080;48.528;8.078;2024-03-08T02:08:39;14.70;;;14.10;;
10082;SDS011;5080;48.528;8.078;2024-03-08T02:11:08;13.97;;;13.37;;
10082;SDS011;5080;48.528;8.078;2024-03-08T02:13:37;14.50;;;13.90;;
10082;SDS011;5080;48.528;8.078;2024-03-08T02:16:05;13.45;;;12.95;;
10082;SDS011;5080;48.528;8.078;2024-03-08T02:18:33;14.20;;;13.60;;
10082;SDS011;5080;48.528;8.078;2024-03-08T02:21:02;14.73;;;14.07;;
10082;SDS011;5080;48.528;8.078;2024-03-08T02:23:30;14.23;;;13.63;;
10082;SDS011;5080;48.528;8.078;2024-03-08T02:25:58;14.00;;;13.50;;
10082;SDS011;5080;48.528;8.078;2024-03-08T02:28:25;14.63;;;14.03;;
10082;SDS011;5080;48.528;8.078;2024-03-08T02:30:53;13.97;;;13.37;;
10082;SDS011;5080;48.528;8.078;2024-03-08T02:33:21;14.10;;;13.50;;
10082;SDS011;5080;48.528;8.078;2024-03-08T02:35:48;14.40;;;13.80;;
10082;SDS011;5080;48.528;8.078;2024-03-08T02:38:17;14.53;;;13.93;;
10082;SDS011;5080;48.528;8.078;2024-03-08T02:40:45;14.57;;;13.97;;
10082;SDS011;5080;48.528;8.078;2024-03-08T02:43:14;14.73;;;14.13;;
10082;SDS011;5080;48.528;8.078;2024-03-08T02:45:42;14.33;;;13.73;;
10082;SDS011;5080;48.528;8.078;2024-03-08T02:48:10;14.50;;;13.90;;
10082;SDS011;5080;48.528;8.078;2024-03-08T02:50:39;14.77;;;14.17;;
10082;SDS011;5080;48.528;8.078;2024-03-08T02:53:07;15.02;;;14.43;;
10082;SDS011;5080;48.528;8.078;2024-03-08T02:55:36;14.50;;;13.90;;
10082;SDS011;5080;48.528;8.078;2024-03-08T02:58:03;14.07;;;13.47;;
10082;SDS011;5080;48.528;8.078;2024-03-08T03:00:30;15.07;;;14.43;;
10082;SDS011;5080;48.528;8.078;2024-03-08T03:02:57;14.47;;;13.87;;
10082;SDS011;5080;48.528;8.078;2024-03-08T03:05:24;14.80;;;14.10;;
10082;SDS011;5080;48.528;8.078;2024-03-08T03:07:51;14.43;;;13.83;;
10082;SDS011;5080;48.528;8.078;2024-03-08T03:10:18;15.20;;;14.50;;
10082;SDS011;5080;48.528;8.078;2024-03-08T03:12:48;14.93;;;14.33;;
10082;SDS011;5080;48.528;8.078;2024-03-08T03:15:15;16.03;;;15.33;;
10082;SDS011;5080;48.528;8.078;2024-03-08T03:17:47;15.07;;;14.47;;
10082;SDS011;5080;48.528;8.078;2024-03-08T03:20:16;14.83;;;14.23;;
10082;SDS011;5080;48.528;8.078;2024-03-08T03:22:48;14.97;;;14.37;;
10082;SDS011;5080;48.528;8.078;2024-03-08T03:25:17;15.57;;;14.87;;
10082;SDS011;5080;48.528;8.078;2024-03-08T03:27:51;15.33;;;14.63;;
10082;SDS011;5080;48.528;8.078;2024-03-08T03:30:21;15.47;;;14.77;;
10082;SDS011;5080;48.528;8.078;2024-03-08T03:32:48;14.13;;;13.53;;
10082;SDS011;5080;48.528;8.078;2024-03-08T03:35:16;15.10;;;14.50;;
10082;SDS011;5080;48.528;8.078;2024-03-08T03:37:43;15.33;;;14.70;;
10082;SDS011;5080;48.528;8.078;2024-03-08T03:40:16;14.80;;;14.20;;
10082;SDS011;5080;48.528;8.078;2024-03-08T03:42:44;15.90;;;15.20;;
10082;SDS011;5080;48.528;8.078;2024-03-08T03:45:12;16.07;;;15.37;;
10082;SDS011;5080;48.528;8.078;2024-03-08T03:47:40;16.13;;;15.43;;
10082;SDS011;5080;48.528;8.078;2024-03-08T03:50:09;16.37;;;15.67;;
10082;SDS011;5080;48.528;8.078;2024-03-08T03:52:36;16.00;;;15.30;;
10082;SDS011;5080;48.528;8.078;2024-03-08T03:55:03;17.13;;;16.33;;
10082;SDS011;5080;48.528;8.078;2024-03-08T03:57:30;15.17;;;14.57;;
10082;SDS011;5080;48.528;8.078;2024-03-08T03:59:57;16.10;;;15.40;;
10082;SDS011;5080;48.528;8.078;2024-03-08T04:02:26;15.63;;;14.93;;
10082;SDS011;5080;48.528;8.078;2024-03-08T04:04:52;14.90;;;14.30;;
10082;SDS011;5080;48.528;8.078;2024-03-08T04:07:20;15.80;;;15.10;;
10082;SDS011;5080;48.528;8.078;2024-03-08T04:09:47;15.80;;;15.20;;
10082;SDS011;5080;48.528;8.078;2024-03-08T04:12:14;14.90;;;14.30;;
10082;SDS011;5080;48.528;8.078;2024-03-08T04:14:42;15.60;;;14.97;;
10082;SDS011;5080;48.528;8.078;2024-03-08T04:17:12;14.93;;;14.33;;
10082;SDS011;5080;48.528;8.078;2024-03-08T04:19:40;14.48;;;13.88;;
10082;SDS011;5080;48.528;8.078;2024-03-08T04:22:09;13.53;;;12.93;;
10082;SDS011;5080;48.528;8.078;2024-03-08T04:24:35;14.75;;;14.05;;
10082;SDS011;5080;48.528;8.078;2024-03-08T04:27:02;13.90;;;13.30;;
10082;SDS011;5080;48.528;8.078;2024-03-08T04:29:30;13.27;;;12.77;;
10082;SDS011;5080;48.528;8.078;2024-03-08T04:31:57;13.47;;;12.93;;
10082;SDS011;5080;48.528;8.078;2024-03-08T04:34:24;14.03;;;13.43;;
10082;SDS011;5080;48.528;8.078;2024-03-08T04:36:55;13.73;;;13.13;;
10082;SDS011;5080;48.528;8.078;2024-03-08T04:39:23;13.70;;;13.20;;
10082;SDS011;5080;48.528;8.078;2024-03-08T04:41:53;14.10;;;13.40;;
10082;SDS011;5080;48.528;8.078;2024-03-08T04:44:24;13.13;;;12.63;;
10082;SDS011;5080;48.528;8.078;2024-03-08T04:46:51;13.88;;;13.27;;
10082;SDS011;5080;48.528;8.078;2024-03-08T04:49:18;13.40;;;12.80;;
10082;SDS011;5080;48.528;8.078;2024-03-08T04:51:47;13.98;;;13.38;;
10082;SDS011;5080;48.528;8.078;2024-03-08T04:54:15;12.97;;;12.47;;
10082;SDS011;5080;48.528;8.078;2024-03-08T04:56:42;13.60;;;13.00;;
10082;SDS011;5080;48.528;8.078;2024-03-08T04:59:08;13.60;;;13.00;;
10082;SDS011;5080;48.528;8.078;2024-03-08T05:01:35;14.07;;;13.48;;
10082;SDS011;5080;48.528;8.078;2024-03-08T05:04:03;13.47;;;12.93;;
10082;SDS011;5080;48.528;8.078;2024-03-08T05:06:33;13.27;;;12.73;;
10082;SDS011;5080;48.528;8.078;2024-03-08T05:09:01;13.80;;;13.20;;
10082;SDS011;5080;48.528;8.078;2024-03-08T05:11:39;15.07;;;14.38;;
10082;SDS011;5080;48.528;8.078;2024-03-08T05:14:06;13.60;;;13.00;;
10082;SDS011;5080;48.528;8.078;2024-03-08T05:16:33;13.57;;;12.97;;
10082;SDS011;5080;48.528;8.078;2024-03-08T05:19:00;14.07;;;13.47;;
10082;SDS011;5080;48.528;8.078;2024-03-08T05:21:28;13.82;;;13.23;;
10082;SDS011;5080;48.528;8.078;2024-03-08T05:23:56;14.17;;;13.57;;
10082;SDS011;5080;48.528;8.078;2024-03-08T05:26:22;13.50;;;12.90;;
10082;SDS011;5080;48.528;8.078;2024-03-08T05:28:51;13.60;;;13.00;;
10082;SDS011;5080;48.528;8.078;2024-03-08T05:31:18;13.70;;;13.10;;
10082;SDS011;5080;48.528;8.078;2024-03-08T05:33:47;14.27;;;13.57;;
10082;SDS011;5080;48.528;8.078;2024-03-08T05:36:14;12.63;;;12.13;;
10082;SDS011;5080;48.528;8.078;2024-03-08T05:38:41;12.77;;;12.27;;
10082;SDS011;5080;48.528;8.078;2024-03-08T05:41:08;13.10;;;12.60;;
10082;SDS011;5080;48.528;8.078;2024-03-08T05:43:35;14.13;;;13.53;;
10082;SDS011;5080;48.528;8.078;2024-03-08T05:46:03;13.00;;;12.50;;
10082;SDS011;5080;48.528;8.078;2024-03-08T05:48:30;13.18;;;12.52;;
10082;SDS011;5080;48.528;8.078;2024-03-08T05:50:57;13.40;;;12.80;;
10082;SDS011;5080;48.528;8.078;2024-03-08T05:53:24;13.00;;;12.50;;
10082;SDS011;5080;48.528;8.078;2024-03-08T05:55:51;13.80;;;13.20;;
10082;SDS011;5080;48.528;8.078;2024-03-08T05:58:20;13.73;;;13.13;;
10082;SDS011;5080;48.528;8.078;2024-03-08T06:00:47;13.82;;;13.23;;
10082;SDS011;5080;48.528;8.078;2024-03-08T06:03:15;13.47;;;12.97;;
10082;SDS011;5080;48.528;8.078;2024-03-08T06:05:44;13.37;;;12.83;;
10082;SDS011;5080;48.528;8.078;2024-03-08T06:08:12;13.02;;;12.52;;
10082;SDS011;5080;48.528;8.078;2024-03-08T06:10:40;13.43;;;12.83;;
10082;SDS011;5080;48.528;8.078;2024-03-08T06:13:07;13.37;;;12.77;;
10082;SDS011;5080;48.528;8.078;2024-03-08T06:15:34;13.70;;;13.10;;
10082;SDS011;5080;48.528;8.078;2024-03-08T06:18:01;13.60;;;13.00;;
10082;SDS011;5080;48.528;8.078;2024-03-08T06:20:29;13.23;;;12.73;;
10082;SDS011;5080;48.528;8.078;2024-03-08T06:22:56;13.17;;;12.57;;
10082;SDS011;5080;48.528;8.078;2024-03-08T06:25:23;13.55;;;12.95;;
10082;SDS011;5080;48.528;8.078;2024-03-08T06:27:50;14.07;;;13.47;;
10082;SDS011;5080;48.528;8.078;2024-03-08T06:30:18;13.20;;;12.60;;
10082;SDS011;5080;48.528;8.078;2024-03-08T06:32:45;13.27;;;12.67;;
10082;SDS011;5080;48.528;8.078;2024-03-08T06:35:12;13.70;;;13.10;;
10082;SDS011;5080;48.528;8.078;2024-03-08T06:37:42;13.07;;;12.57;;
10082;SDS011;5080;48.528;8.078;2024-03-08T06:40:09;13.63;;;13.02;;
10082;SDS011;5080;48.528;8.078;2024-03-08T06:42:39;14.67;;;13.97;;
10082;SDS011;5080;48.528;8.078;2024-03-08T06:45:06;14.07;;;13.47;;
10082;SDS011;5080;48.528;8.078;2024-03-08T06:47:35;13.67;;;13.07;;
10082;SDS011;5080;48.528;8.078;2024-03-08T06:50:02;13.75;;;13.15;;
10082;SDS011;5080;48.528;8.078;2024-03-08T06:52:30;12.93;;;12.43;;
10082;SDS011;5080;48.528;8.078;2024-03-08T06:54:59;13.97;;;13.37;;
10082;SDS011;5080;48.528;8.078;2024-03-08T06:57:26;14.33;;;13.73;;
10082;SDS011;5080;48.528;8.078;2024-03-08T06:59:54;14.13;;;13.53;;
10082;SDS011;5080;48.528;8.078;2024-03-08T07:02:22;13.60;;;13.03;;
10082;SDS011;5080;48.528;8.078;2024-03-08T07:04:50;14.17;;;13.53;;
10082;SDS011;5080;48.528;8.078;2024-03-08T07:07:18;13.87;;;13.27;;
10082;SDS011;5080;48.528;8.078;2024-03-08T07:09:45;14.57;;;13.95;;
10082;SDS011;5080;48.528;8.078;2024-03-08T07:12:15;12.87;;;12.37;;
10082;SDS011;5080;48.528;8.078;2024-03-08T07:14:43;13.48;;;12.88;;
10082;SDS011;5080;48.528;8.078;2024-03-08T07:17:10;13.70;;;13.10;;
10082;SDS011;5080;48.528;8.078;2024-03-08T07:19:38;13.50;;;13.00;;
10082;SDS011;5080;48.528;8.078;2024-03-08T07:22:05;13.85;;;13.25;;
10082;SDS011;5080;48.528;8.078;2024-03-08T07:24:33;13.47;;;12.87;;
10082;SDS011;5080;48.528;8.078;2024-03-08T07:27:16;13.43;;;12.83;;
10082;SDS011;5080;48.528;8.078;2024-03-08T07:29:43;12.98;;;12.40;;
10082;SDS011;5080;48.528;8.078;2024-03-08T07:32:10;13.52;;;12.93;;
10082;SDS011;5080;48.528;8.078;2024-03-08T07:34:45;14.07;;;13.47;;
10082;SDS011;5080;48.528;8.078;2024-03-08T07:37:13;14.27;;;13.67;;
10082;SDS011;5080;48.528;8.078;2024-03-08T07:39:40;14.07;;;13.48;;
10082;SDS011;5080;48.528;8.078;2024-03-08T07:42:07;13.98;;;13.38;;
10082;SDS011;5080;48.528;8.078;2024-03-08T07:44:36;15.32;;;14.73;;
10082;SDS011;5080;48.528;8.078;2024-03-08T07:47:05;15.30;;;14.70;;
10082;SDS011;5080;48.528;8.078;2024-03-08T07:49:34;14.90;;;14.30;;
10082;SDS011;5080;48.528;8.078;2024-03-08T07:52:02;14.30;;;13.70;;
10082;SDS011;5080;48.528;8.078;2024-03-08T07:54:32;14.70;;;14.10;;
10082;SDS011;5080;48.528;8.078;2024-03-08T07:56:59;14.83;;;14.23;;
10082;SDS011;5080;48.528;8.078;2024-03-08T07:59:27;14.10;;;13.50;;
10082;SDS011;5080;48.528;8.078;2024-03-08T08:01:55;14.67;;;14.07;;
10082;SDS011;5080;48.528;8.078;2024-03-08T08:04:22;15.07;;;14.47;;
10082;SDS011;5080;48.528;8.078;2024-03-08T08:06:49;14.10;;;13.50;;
10082;SDS011;5080;48.528;8.078;2024-03-08T08:09:16;14.60;;;14.00;;
10082;SDS011;5080;48.528;8.078;2024-03-08T08:11:53;13.80;;;13.30;;
10082;SDS011;5080;48.528;8.078;2024-03-08T08:14:20;14.50;;;13.90;;
10082;SDS011;5080;48.528;8.078;2024-03-08T08:16:47;14.50;;;13.90;;
10082;SDS011;5080;48.528;8.078;2024-03-08T08:19:18;14.32;;;13.73;;
10082;SDS011;5080;48.528;8.078;2024-03-08T08:21:44;14.40;;;13.83;;
10082;SDS011;5080;48.528;8.078;2024-03-08T08:24:11;13.33;;;12.83;;
10082;SDS011;5080;48.528;8.078;2024-03-08T08:26:38;13.82;;;13.32;;
10082;SDS011;5080;48.528;8.078;2024-03-08T08:29:05;13.90;;;13.40;;
10082;SDS011;5080;48.528;8.078;2024-03-08T08:31:32;13.97;;;13.47;;
10082;SDS011;5080;48.528;8.078;2024-03-08T08:33:59;14.17;;;13.67;;
10082;SDS011;5080;48.528;8.078;2024-03-08T08:36:27;14.23;;;13.63;;
10082;SDS011;5080;48.528;8.078;2024-03-08T08:38:54;14.17;;;13.67;;
10082;SDS011;5080;48.528;8.078;2024-03-08T08:41:23;14.00;;;13.50;;
10082;SDS011;5080;48.528;8.078;2024-03-08T08:43:50;14.97;;;14.37;;
10082;SDS011;5080;48.528;8.078;2024-03-08T08:46:17;15.03;;;14.37;;
10082;SDS011;5080;48.528;8.078;2024-03-08T08:48:44;16.67;;;16.03;;
10082;SDS011;5080;48.528;8.078;2024-03-08T08:51:11;18.00;;;17.30;;
10082;SDS011;5080;48.528;8.078;2024-03-08T08:53:40;17.93;;;17.23;;
10082;SDS011;5080;48.528;8.078;2024-03-08T08:56:08;18.30;;;17.60;;
10082;SDS011;5080;48.528;8.078;2024-03-08T08:58:37;18.23;;;17.53;;
10082;SDS011;5080;48.528;8.078;2024-03-08T09:01:04;17.75;;;17.08;;
10082;SDS011;5080;48.528;8.078;2024-03-08T09:03:32;17.97;;;17.27;;
10082;SDS011;5080;48.528;8.078;2024-03-08T09:05:59;17.03;;;16.43;;
10082;SDS011;5080;48.528;8.078;2024-03-08T09:08:27;16.33;;;15.63;;
10082;SDS011;5080;48.528;8.078;2024-03-08T09:10:57;16.03;;;15.43;;
10082;SDS011;5080;48.528;8.078;2024-03-08T09:13:25;15.43;;;14.83;;
10082;SDS011;5080;48.528;8.078;2024-03-08T09:15:52;15.63;;;15.03;;
10082;SDS011;5080;48.528;8.078;2024-03-08T09:18:18;15.63;;;15.03;;
10082;SDS011;5080;48.528;8.078;2024-03-08T09:20:45;15.20;;;14.63;;
10082;SDS011;5080;48.528;8.078;2024-03-08T09:23:13;16.17;;;15.57;;
10082;SDS011;5080;48.528;8.078;2024-03-08T09:25:40;15.93;;;15.33;;
10082;SDS011;5080;48.528;8.078;2024-03-08T09:28:08;20.67;;;19.87;;
10082;SDS011;5080;48.528;8.078;2024-03-08T09:30:36;19.93;;;19.13;;
10082;SDS011;5080;48.528;8.078;2024-03-08T09:33:03;19.20;;;18.50;;
10082;SDS011;5080;48.528;8.078;2024-03-08T09:35:30;19.30;;;18.60;;
10082;SDS011;5080;48.528;8.078;2024-03-08T09:37:57;18.40;;;17.70;;
10082;SDS011;5080;48.528;8.078;2024-03-08T09:40:24;17.97;;;17.27;;
10082;SDS011;5080;48.528;8.078;2024-03-08T09:42:52;21.97;;;21.17;;
10082;SDS011;5080;48.528;8.078;2024-03-08T09:45:21;25.00;;;24.10;;
10082;SDS011;5080;48.528;8.078;2024-03-08T09:47:49;22.57;;;21.77;;
10082;SDS011;5080;48.528;8.078;2024-03-08T09:50:18;20.10;;;19.40;;
10082;SDS011;5080;48.528;8.078;2024-03-08T09:52:46;20.30;;;19.53;;
10082;SDS011;5080;48.528;8.078;2024-03-08T09:55:14;16.63;;;16.03;;
10082;SDS011;5080;48.528;8.078;2024-03-08T09:57:42;16.40;;;15.80;;
10082;SDS011;5080;48.528;8.078;2024-03-08T10:00:32;15.73;;;15.13;;
10082;SDS011;5080;48.528;8.078;2024-03-08T10:03:00;17.53;;;16.93;;
10082;SDS011;5080;48.528;8.078;2024-03-08T10:05:27;17.83;;;17.17;;
10082;SDS011;5080;48.528;8.078;2024-03-08T10:07:54;18.50;;;17.80;;
10082;SDS011;5080;48.528;8.078;2024-03-08T10:10:21;18.57;;;17.87;;
10082;SDS011;5080;48.528;8.078;2024-03-08T10:12:47;18.27;;;17.57;;
10082;SDS011;5080;48.528;8.078;2024-03-08T10:15:15;19.17;;;18.37;;
10082;SDS011;5080;48.528;8.078;2024-03-08T10:17:44;19.13;;;18.43;;
10082;SDS011;5080;48.528;8.078;2024-03-08T10:20:13;18.47;;;17.77;;
10082;SDS011;5080;48.528;8.078;2024-03-08T10:22:41;18.93;;;18.23;;
10082;SDS011;5080;48.528;8.078;2024-03-08T10:25:09;18.63;;;17.93;;
10082;SDS011;5080;48.528;8.078;2024-03-08T10:27:37;20.53;;;19.73;;
10082;SDS011;5080;48.528;8.078;2024-03-08T10:30:06;20.93;;;20.13;;
10082;SDS011;5080;48.528;8.078;2024-03-08T10:32:37;20.97;;;20.17;;
10082;SDS011;5080;48.528;8.078;2024-03-08T10:35:07;23.10;;;22.23;;
10082;SDS011;5080;48.528;8.078;2024-03-08T10:37:36;23.35;;;22.40;;
10082;SDS011;5080;48.528;8.078;2024-03-08T10:40:13;23.50;;;22.60;;
10082;SDS011;5080;48.528;8.078;2024-03-08T10:42:47;23.07;;;22.20;;
10082;SDS011;5080;48.528;8.078;2024-03-08T10:45:20;24.80;;;23.80;;
10082;SDS011;5080;48.528;8.078;2024-03-08T10:48:00;20.13;;;19.33;;
10082;SDS011;5080;48.528;8.078;2024-03-08T10:50:45;18.87;;;18.17;;
10082;SDS011;5080;48.528;8.078;2024-03-08T10:53:15;18.55;;;17.85;;
10082;SDS011;5080;48.528;8.078;2024-03-08T10:55:44;21.33;;;20.47;;
10082;SDS011;5080;48.528;8.078;2024-03-08T10:58:13;22.30;;;21.50;;
10082;SDS011;5080;48.528;8.078;2024-03-08T11:00:40;22.55;;;21.67;;
10082;SDS011;5080;48.528;8.078;2024-03-08T11:03:07;21.43;;;20.63;;
10082;SDS011;5080;48.528;8.078;2024-03-08T11:06:14;20.10;;;19.30;;
10082;SDS011;5080;48.528;8.078;2024-03-08T11:08:42;22.30;;;21.43;;
10082;SDS011;5080;48.528;8.078;2024-03-08T11:11:23;22.23;;;21.40;;
10082;SDS011;5080;48.528;8.078;2024-03-08T11:13:52;23.47;;;22.57;;
10082;SDS011;5080;48.528;8.078;2024-03-08T11:19:06;19.45;;;18.65;;
10082;SDS011;5080;48.528;8.078;2024-03-08T11:21:58;21.73;;;20.92;;
10082;SDS011;5080;48.528;8.078;2024-03-08T11:24:25;23.83;;;22.93;;
10082;SDS011;5080;48.528;8.078;2024-03-08T11:26:54;21.20;;;20.40;;
10082;SDS011;5080;48.528;8.078;2024-03-08T11:29:34;23.83;;;22.92;;
10082;SDS011;5080;48.528;8.078;2024-03-08T11:32:05;23.23;;;22.37;;
10082;SDS011;5080;48.528;8.078;2024-03-08T11:34:35;19.75;;;18.95;;
10082;SDS011;5080;48.528;8.078;2024-03-08T11:37:07;19.97;;;19.27;;
10082;SDS011;5080;48.528;8.078;2024-03-08T11:39:38;18.60;;;17.90;;
10082;SDS011;5080;48.528;8.078;2024-03-08T11:42:05;19.10;;;18.37;;
10082;SDS011;5080;48.528;8.078;2024-03-08T11:44:33;19.93;;;19.13;;
10082;SDS011;5080;48.528;8.078;2024-03-08T11:47:01;18.27;;;17.57;;
10082;SDS011;5080;48.528;8.078;2024-03-08T11:49:31;18.47;;;17.77;;
10082;SDS011;5080;48.528;8.078;2024-03-08T11:51:58;20.83;;;20.03;;
10082;SDS011;5080;48.528;8.078;2024-03-08T11:54:26;19.40;;;18.70;;
10082;SDS011;5080;48.528;8.078;2024-03-08T11:56:55;19.10;;;18.40;;
10082;SDS011;5080;48.528;8.078;2024-03-08T11:59:25;20.53;;;19.73;;
10082;SDS011;5080;48.528;8.078;2024-03-08T12:02:02;19.38;;;18.67;;
10082;SDS011;5080;48.528;8.078;2024-03-08T12:04:30;18.60;;;17.90;;
10082;SDS011;5080;48.528;8.078;2024-03-08T12:06:59;18.67;;;17.97;;
10082;SDS011;5080;48.528;8.078;2024-03-08T12:09:28;19.43;;;18.73;;
10082;SDS011;5080;48.528;8.078;2024-03-08T12:11:55;19.23;;;18.53;;
10082;SDS011;5080;48.528;8.078;2024-03-08T12:14:24;19.03;;;18.23;;
10082;SDS011;5080;48.528;8.078;2024-03-08T12:16:51;18.97;;;18.27;;
10082;SDS011;5080;48.528;8.078;2024-03-08T12:19:18;18.17;;;17.47;;
10082;SDS011;5080;48.528;8.078;2024-03-08T12:21:45;18.23;;;17.53;;
10082;SDS011;5080;48.528;8.078;2024-03-08T12:24:14;18.83;;;18.13;;
10082;SDS011;5080;48.528;8.078;2024-03-08T12:26:45;19.20;;;18.50;;
10082;SDS011;5080;48.528;8.078;2024-03-08T12:29:14;18.97;;;18.27;;
10082;SDS011;5080;48.528;8.078;2024-03-08T12:31:42;20.23;;;19.43;;
10082;SDS011;5080;48.528;8.078;2024-03-08T12:34:09;22.83;;;21.93;;
10082;SDS011;5080;48.528;8.078;2024-03-08T12:36:38;19.40;;;18.70;;
10082;SDS011;5080;48.528;8.078;2024-03-08T12:39:12;19.50;;;18.80;;
10082;SDS011;5080;48.528;8.078;2024-03-08T12:41:41;18.63;;;17.93;;
10082;SDS011;5080;48.528;8.078;2024-03-08T12:44:09;20.75;;;19.95;;
10082;SDS011;5080;48.528;8.078;2024-03-08T12:46:37;19.00;;;18.30;;
10082;SDS011;5080;48.528;8.078;2024-03-08T12:49:08;18.03;;;17.37;;
10082;SDS011;5080;48.528;8.078;2024-03-08T12:51:36;21.83;;;21.03;;
10082;SDS011;5080;48.528;8.078;2024-03-08T12:54:04;19.08;;;18.38;;
10082;SDS011;5080;48.528;8.078;2024-03-08T12:56:32;18.63;;;17.93;;
10082;SDS011;5080;48.528;8.078;2024-03-08T12:59:00;18.90;;;18.20;;
10082;SDS011;5080;48.528;8.078;2024-03-08T13:01:29;21.73;;;20.93;;
10082;SDS011;5080;48.528;8.078;2024-03-08T13:03:57;19.20;;;18.50;;
10082;SDS011;5080;48.528;8.078;2024-03-08T13:06:25;19.43;;;18.63;;
10082;SDS011;5080;48.528;8.078;2024-03-08T13:08:53;20.77;;;19.97;;
10082;SDS011;5080;48.528;8.078;2024-03-08T13:11:21;21.13;;;20.33;;
10082;SDS011;5080;48.528;8.078;2024-03-08T13:13:49;22.17;;;21.38;;
10082;SDS011;5080;48.528;8.078;2024-03-08T13:16:16;28.97;;;27.87;;
10082;SDS011;5080;48.528;8.078;2024-03-08T13:18:45;22.52;;;21.65;;
10082;SDS011;5080;48.528;8.078;2024-03-08T13:21:13;26.77;;;25.77;;
10082;SDS011;5080;48.528;8.078;2024-03-08T13:23:43;20.90;;;20.13;;
10082;SDS011;5080;48.528;8.078;2024-03-08T13:26:14;25.37;;;24.47;;
10082;SDS011;5080;48.528;8.078;2024-03-08T13:28:41;25.20;;;24.00;;
10082;SDS011;5080;48.528;8.078;2024-03-08T13:31:08;21.92;;;21.13;;
10082;SDS011;5080;48.528;8.078;2024-03-08T13:33:36;22.17;;;21.38;;
10082;SDS011;5080;48.528;8.078;2024-03-08T13:36:08;20.33;;;19.57;;
10082;SDS011;5080;48.528;8.078;2024-03-08T13:38:40;22.00;;;21.20;;
10082;SDS011;5080;48.528;8.078;2024-03-08T13:41:08;21.43;;;20.63;;
10082;SDS011;5080;48.528;8.078;2024-03-08T13:43:36;23.30;;;22.40;;
10082;SDS011;5080;48.528;8.078;2024-03-08T13:46:03;23.27;;;22.37;;
10082;SDS011;5080;48.528;8.078;2024-03-08T13:48:30;24.55;;;23.58;;
10082;SDS011;5080;48.528;8.078;2024-03-08T13:50:57;23.15;;;22.25;;
10082;SDS011;5080;48.528;8.078;2024-03-08T13:53:26;20.73;;;19.93;;
10082;SDS011;5080;48.528;8.078;2024-03-08T13:55:53;22.73;;;21.83;;
10082;SDS011;5080;48.528;8.078;2024-03-08T13:58:21;23.57;;;22.67;;
10082;SDS011;5080;48.528;8.078;2024-03-08T14:00:48;23.63;;;22.73;;
10082;SDS011;5080;48.528;8.078;2024-03-08T14:03:16;26.10;;;25.13;;
10082;SDS011;5080;48.528;8.078;2024-03-08T14:05:43;22.87;;;22.07;;
10082;SDS011;5080;48.528;8.078;2024-03-08T14:08:11;23.60;;;22.70;;
10082;SDS011;5080;48.528;8.078;2024-03-08T14:10:40;21.95;;;21.15;;
10082;SDS011;5080;48.528;8.078;2024-03-08T14:13:07;21.08;;;20.27;;
10082;SDS011;5080;48.528;8.078;2024-03-08T14:15:34;19.73;;;19.03;;
10082;SDS011;5080;48.528;8.078;2024-03-08T14:18:01;22.33;;;21.53;;
10082;SDS011;5080;48.528;8.078;2024-03-08T14:20:31;20.53;;;19.73;;
10082;SDS011;5080;48.528;8.078;2024-03-08T14:22:58;24.43;;;23.53;;
10082;SDS011;5080;48.528;8.078;2024-03-08T14:25:25;20.80;;;20.07;;
10082;SDS011;5080;48.528;8.078;2024-03-08T14:27:56;26.67;;;25.67;;
10082;SDS011;5080;48.528;8.078;2024-03-08T14:30:23;20.77;;;19.97;;
10082;SDS011;5080;48.528;8.078;2024-03-08T14:33:00;19.97;;;19.27;;
10082;SDS011;5080;48.528;8.078;2024-03-08T14:35:27;20.97;;;20.17;;
10082;SDS011;5080;48.528;8.078;2024-03-08T14:37:55;22.93;;;22.07;;
10082;SDS011;5080;48.528;8.078;2024-03-08T14:40:23;20.63;;;19.90;;
10082;SDS011;5080;48.528;8.078;2024-03-08T14:42:50;19.47;;;18.77;;